createdAt,value
2022-10-17T00:02:11.832Z,8.00
2022-10-17T00:04:43.787Z,9.20
2022-10-17T00:07:15.521Z,9.30
2022-10-17T00:09:47.401Z,8.20
2022-10-17T00:12:19.116Z,8.30
2022-10-17T00:17:20.810Z,8.40
2022-10-17T00:19:52.451Z,9.20
2022-10-17T00:22:24.095Z,8.10
2022-10-17T00:24:55.785Z,6.80
2022-10-17T00:27:27.856Z,6.60
2022-10-17T00:29:59.723Z,6.60
2022-10-17T00:35:02.720Z,6.70
2022-10-17T00:37:34.957Z,7.00
2022-10-17T00:40:07.451Z,7.20
2022-10-17T00:42:39.056Z,8.30
2022-10-17T00:47:49.914Z,8.00
2022-10-17T00:50:21.856Z,6.80
2022-10-17T00:52:54.598Z,8.00
2022-10-17T00:55:30.101Z,7.50
2022-10-17T00:58:02.365Z,6.50
2022-10-17T01:00:35.961Z,7.70
2022-10-17T01:03:08.930Z,7.80
2022-10-17T01:05:40.449Z,6.60
2022-10-17T01:08:12.052Z,7.10
2022-10-17T01:10:50.186Z,7.50
2022-10-17T01:13:25.806Z,7.30
2022-10-17T01:16:00.980Z,7.30
2022-10-17T01:18:37.978Z,7.60
2022-10-17T01:21:40.939Z,7.50
2022-10-17T01:24:49.977Z,7.90
2022-10-17T01:27:34.234Z,8.20
2022-10-17T01:30:25.568Z,7.30
2022-10-17T01:32:57.758Z,8.40
2022-10-17T01:35:31.444Z,7.70
2022-10-17T01:38:06.959Z,7.00
2022-10-17T01:40:39.821Z,7.40
2022-10-17T01:43:13.043Z,7.30
2022-10-17T01:45:46.725Z,8.10
2022-10-17T01:48:20.446Z,7.70
2022-10-17T01:50:52.495Z,7.50
2022-10-17T01:53:25.898Z,6.90
2022-10-17T01:58:35.279Z,7.20
2022-10-17T02:01:08.233Z,6.80
2022-10-17T02:03:39.954Z,7.00
2022-10-17T02:06:11.903Z,7.20
2022-10-17T02:08:47.368Z,7.40
2022-10-17T02:11:20.281Z,7.20
2022-10-17T02:14:00.839Z,6.90
2022-10-17T02:16:37.261Z,7.10
2022-10-17T02:19:32.263Z,6.80
2022-10-17T02:22:09.860Z,6.50
2022-10-17T02:24:43.952Z,7.80
2022-10-17T02:27:22.047Z,7.10
2022-10-17T02:29:57.406Z,7.10
2022-10-17T02:32:30.559Z,6.00
2022-10-17T02:35:03.464Z,6.40
2022-10-17T02:37:35.100Z,7.30
2022-10-17T02:40:08.882Z,8.00
2022-10-17T02:42:42.421Z,6.50
2022-10-17T02:45:14.322Z,7.40
2022-10-17T02:47:50.115Z,6.80
2022-10-17T02:50:21.668Z,7.90
2022-10-17T02:52:54.612Z,8.70
2022-10-17T02:55:29.625Z,7.70
2022-10-17T02:58:02.407Z,7.00
2022-10-17T03:00:34.011Z,7.30
2022-10-17T03:05:36.782Z,7.30
2022-10-17T03:08:13.043Z,7.60
2022-10-17T03:10:44.544Z,7.40
2022-10-17T03:13:16.065Z,7.90
2022-10-17T03:15:47.636Z,7.90
2022-10-17T03:18:19.044Z,8.00
2022-10-17T03:20:51.143Z,8.40
2022-10-17T03:23:23.484Z,7.70
2022-10-17T03:28:25.270Z,8.10
2022-10-17T03:30:57.160Z,8.20
2022-10-17T03:33:28.945Z,8.30
2022-10-17T03:36:00.510Z,8.40
2022-10-17T03:41:02.814Z,7.20
2022-10-17T03:43:34.548Z,7.60
2022-10-17T03:46:06.638Z,7.50
2022-10-17T03:48:38.658Z,8.50
2022-10-17T03:53:45.505Z,8.50
2022-10-17T03:56:18.546Z,8.30
2022-10-17T03:58:55.255Z,8.10
2022-10-17T04:01:27.231Z,8.50
2022-10-17T04:06:31.567Z,8.90
2022-10-17T04:09:03.767Z,8.70
2022-10-17T04:11:45.688Z,8.80
2022-10-17T04:14:17.421Z,8.50
2022-10-17T04:16:49.202Z,8.60
2022-10-17T04:19:23.862Z,8.70
2022-10-17T04:21:55.699Z,9.40
2022-10-17T04:24:28.117Z,7.90
2022-10-17T04:27:23.030Z,9.00
2022-10-17T04:29:54.735Z,8.00
2022-10-17T04:32:29.201Z,8.70
2022-10-17T04:35:27.377Z,9.80
2022-10-17T04:38:04.688Z,9.50
2022-10-17T04:40:36.770Z,9.80
2022-10-17T04:43:08.658Z,9.20
2022-10-17T04:45:41.339Z,9.30
2022-10-17T04:50:43.759Z,9.20
2022-10-17T04:53:32.230Z,9.10
2022-10-17T04:56:08.531Z,9.30
2022-10-17T04:58:40.573Z,9.00
2022-10-17T05:01:15.421Z,8.50
2022-10-17T05:03:47.399Z,7.70
2022-10-17T05:06:20.682Z,8.30
2022-10-17T05:09:01.096Z,8.60
2022-10-17T05:11:34.019Z,8.60
2022-10-17T05:14:06.451Z,9.10
2022-10-17T05:16:38.282Z,9.00
2022-10-17T05:19:10.569Z,8.60
2022-10-17T05:21:47.206Z,8.10
2022-10-17T05:24:19.137Z,8.00
2022-10-17T05:26:52.798Z,9.10
2022-10-17T05:29:25.147Z,8.50
2022-10-17T05:34:34.149Z,7.60
2022-10-17T05:37:05.831Z,7.30
2022-10-17T05:39:38.521Z,8.30
2022-10-17T05:42:11.896Z,7.30
2022-10-17T05:44:43.482Z,8.50
2022-10-17T05:47:15.310Z,8.70
2022-10-17T05:49:51.531Z,8.70
2022-10-17T05:52:29.040Z,8.90
2022-10-17T05:55:13.007Z,8.30
2022-10-17T05:57:44.986Z,8.90
2022-10-17T06:00:19.485Z,8.20
2022-10-17T06:02:55.659Z,8.20
2022-10-17T06:05:28.641Z,7.90
2022-10-17T06:08:02.108Z,8.70
2022-10-17T06:10:37.039Z,8.70
2022-10-17T06:13:08.733Z,8.70
2022-10-17T06:18:13.679Z,8.10
2022-10-17T06:20:46.212Z,8.60
2022-10-17T06:23:19.882Z,8.90
2022-10-17T06:26:06.621Z,8.50
2022-10-17T06:28:38.285Z,9.10
2022-10-17T06:31:11.055Z,8.20
2022-10-17T06:33:42.733Z,8.80
2022-10-17T06:36:16.216Z,8.90
2022-10-17T06:38:49.000Z,8.20
2022-10-17T06:41:37.395Z,9.10
2022-10-17T06:44:14.101Z,7.90
2022-10-17T06:47:01.805Z,8.80
2022-10-17T06:49:34.882Z,8.70
2022-10-17T06:52:22.839Z,8.40
2022-10-17T06:55:21.335Z,8.90
2022-10-17T06:58:12.534Z,8.10
2022-10-17T07:01:04.102Z,9.70
2022-10-17T07:03:37.885Z,9.50
2022-10-17T07:06:11.490Z,8.30
2022-10-17T07:08:47.530Z,9.20
2022-10-17T07:11:23.087Z,9.00
2022-10-17T07:13:56.795Z,8.70
2022-10-17T07:16:28.574Z,10.20
2022-10-17T07:19:08.599Z,9.80
2022-10-17T07:21:43.758Z,9.80
2022-10-17T07:24:16.887Z,9.00
2022-10-17T07:26:52.495Z,8.70
2022-10-17T07:29:25.116Z,9.00
2022-10-17T07:32:10.403Z,10.10
2022-10-17T07:34:42.948Z,8.50
2022-10-17T07:37:15.537Z,8.40
2022-10-17T07:39:52.934Z,7.50
2022-10-17T07:42:24.654Z,7.70
2022-10-17T07:44:58.628Z,7.90
2022-10-17T07:47:36.172Z,8.10
2022-10-17T07:50:11.727Z,7.90
2022-10-17T07:52:44.234Z,7.00
2022-10-17T07:55:15.668Z,7.80
2022-10-17T07:57:47.487Z,8.40
2022-10-17T08:00:19.539Z,8.50
2022-10-17T08:02:50.963Z,7.30
2022-10-17T08:05:22.625Z,7.20
2022-10-17T08:07:55.715Z,6.90
2022-10-17T08:10:29.647Z,8.50
2022-10-17T08:13:01.407Z,7.40
2022-10-17T08:15:32.899Z,7.50
2022-10-17T08:18:04.518Z,6.50
2022-10-17T08:20:36.003Z,7.60
2022-10-17T08:23:07.418Z,6.80
2022-10-17T08:25:40.862Z,6.40
2022-10-17T08:28:12.425Z,8.60
2022-10-17T08:30:44.208Z,6.70
2022-10-17T08:35:45.537Z,7.10
2022-10-17T08:38:20.821Z,7.60
2022-10-17T08:40:53.667Z,8.40
2022-10-17T08:43:35.759Z,7.10
2022-10-17T08:46:08.651Z,7.90
2022-10-17T08:48:46.363Z,6.90
2022-10-17T08:51:20.035Z,6.90
2022-10-17T08:53:56.513Z,7.30
2022-10-17T08:56:49.290Z,6.40
2022-10-17T08:59:23.370Z,7.40
2022-10-17T09:01:57.835Z,6.20
2022-10-17T09:04:57.777Z,6.00
2022-10-17T09:07:32.843Z,5.50
2022-10-17T09:10:10.805Z,6.30
2022-10-17T09:12:45.609Z,6.00
2022-10-17T09:15:33.312Z,6.30
2022-10-17T09:18:06.674Z,6.00
2022-10-17T09:20:40.860Z,6.40
2022-10-17T09:23:16.906Z,6.00
2022-10-17T09:25:49.252Z,5.40
2022-10-17T09:28:22.893Z,6.60
2022-10-17T09:30:57.748Z,5.00
2022-10-17T09:33:35.119Z,4.60
2022-10-17T09:36:15.158Z,6.00
2022-10-17T09:38:49.307Z,5.40
2022-10-17T09:44:19.222Z,5.20
2022-10-17T09:47:14.532Z,5.20
2022-10-17T09:49:48.651Z,4.70
2022-10-17T09:52:21.328Z,4.90
2022-10-17T09:54:54.380Z,4.40
2022-10-17T09:57:26.892Z,4.50
2022-10-17T10:00:05.580Z,4.10
2022-10-17T10:02:45.079Z,4.40
2022-10-17T10:05:20.682Z,4.30
2022-10-17T10:08:05.198Z,4.50
2022-10-17T10:10:36.946Z,5.70
2022-10-17T10:13:21.865Z,5.20
2022-10-17T10:15:53.567Z,5.20
2022-10-17T10:18:35.993Z,6.00
2022-10-17T10:21:12.995Z,5.10
2022-10-17T10:23:45.537Z,4.50
2022-10-17T10:26:25.183Z,4.30
2022-10-17T10:28:59.545Z,4.50
2022-10-17T10:31:33.686Z,4.40
2022-10-17T10:34:12.992Z,4.70
2022-10-17T10:36:59.758Z,3.60
2022-10-17T10:39:45.497Z,3.90
2022-10-17T10:42:30.776Z,3.70
2022-10-17T10:45:23.712Z,3.30
2022-10-17T10:48:02.034Z,3.60
2022-10-17T10:50:35.320Z,3.80
2022-10-17T10:53:17.582Z,3.70
2022-10-17T10:55:51.872Z,4.00
2022-10-17T10:58:43.063Z,3.90
2022-10-17T11:01:20.567Z,4.20
2022-10-17T11:03:58.923Z,4.10
2022-10-17T11:06:31.821Z,3.30
2022-10-17T11:09:21.842Z,3.70
2022-10-17T11:12:00.994Z,3.60
2022-10-17T11:14:41.812Z,4.20
2022-10-17T11:17:17.679Z,3.40
2022-10-17T11:19:53.118Z,4.30
2022-10-17T11:22:29.344Z,3.60
2022-10-17T11:25:02.534Z,3.90
2022-10-17T11:27:34.449Z,3.70
2022-10-17T11:30:06.640Z,4.10
2022-10-17T11:32:40.678Z,7.70
2022-10-17T11:35:18.591Z,4.20
2022-10-17T11:37:51.545Z,4.10
2022-10-17T11:40:27.089Z,3.80
2022-10-17T11:43:01.076Z,3.40
2022-10-17T11:45:35.236Z,3.00
2022-10-17T11:48:09.163Z,3.40
2022-10-17T11:53:36.205Z,3.20
2022-10-17T11:56:08.238Z,4.00
2022-10-17T11:58:41.336Z,3.50
2022-10-17T12:01:19.040Z,3.20
2022-10-17T12:04:03.107Z,3.50
2022-10-17T12:06:47.360Z,3.40
2022-10-17T12:09:22.351Z,3.10
2022-10-17T12:11:55.333Z,3.70
2022-10-17T12:14:43.876Z,3.10
2022-10-17T12:17:35.731Z,2.80
2022-10-17T12:20:35.073Z,2.90
2022-10-17T12:23:23.359Z,3.30
2022-10-17T12:26:01.154Z,3.00
2022-10-17T12:28:35.758Z,3.20
2022-10-17T12:31:10.293Z,3.10
2022-10-17T12:33:51.607Z,3.30
2022-10-17T12:36:42.443Z,2.50
2022-10-17T12:39:49.884Z,3.40
2022-10-17T12:42:41.893Z,3.40
2022-10-17T12:45:44.279Z,2.70
2022-10-17T12:54:00.621Z,2.50
2022-10-17T12:56:40.519Z,2.80
2022-10-17T12:59:15.391Z,2.60
2022-10-17T13:01:48.993Z,2.80
2022-10-17T13:04:21.188Z,2.50
2022-10-17T13:06:54.597Z,2.60
2022-10-17T13:09:29.579Z,2.50
2022-10-17T13:12:04.614Z,2.60
2022-10-17T13:14:36.211Z,2.40
2022-10-17T13:17:21.448Z,2.50
2022-10-17T13:19:53.084Z,3.20
2022-10-17T13:25:07.754Z,2.50
2022-10-17T13:27:39.354Z,2.70
2022-10-17T13:33:23.303Z,2.40
2022-10-17T13:36:00.428Z,2.40
2022-10-17T13:38:35.709Z,2.80
2022-10-17T13:41:34.686Z,2.50
2022-10-17T13:44:09.255Z,2.70
2022-10-17T13:46:42.352Z,3.30
2022-10-17T13:49:19.981Z,3.60
2022-10-17T13:51:53.614Z,3.20
2022-10-17T13:54:35.561Z,2.80
2022-10-17T13:57:07.786Z,2.40
2022-10-17T13:59:42.435Z,2.70
2022-10-17T14:02:16.964Z,2.90
2022-10-17T14:05:15.724Z,2.60
2022-10-17T14:08:09.373Z,2.70
2022-10-17T14:10:35.663Z,2.80
2022-10-17T14:13:08.426Z,2.80
2022-10-17T14:15:41.158Z,2.80
2022-10-17T14:18:19.165Z,3.00
2022-10-17T14:21:32.193Z,3.00
2022-10-17T14:23:45.966Z,4.00
2022-10-17T14:26:19.944Z,4.10
2022-10-17T14:28:52.824Z,5.50
2022-10-17T14:31:30.866Z,5.70
2022-10-17T14:34:02.706Z,6.50
2022-10-17T14:39:05.197Z,8.80
2022-10-17T14:44:21.727Z,9.30
2022-10-17T14:46:56.064Z,13.50
2022-10-17T14:49:36.033Z,12.70
2022-10-17T14:52:29.979Z,12.40
2022-10-17T14:55:02.539Z,11.50
2022-10-17T14:57:44.399Z,9.30
2022-10-17T15:02:48.816Z,9.90
2022-10-17T15:05:21.299Z,8.00
2022-10-17T15:07:53.511Z,7.20
2022-10-17T15:10:35.377Z,6.00
2022-10-17T15:15:56.711Z,5.30
2022-10-17T15:18:28.281Z,5.60
2022-10-17T15:21:05.272Z,4.60
2022-10-17T15:23:52.472Z,5.10
2022-10-17T15:26:26.023Z,5.00
2022-10-17T15:28:57.592Z,4.90
2022-10-17T15:31:29.027Z,4.80
2022-10-17T15:34:00.545Z,5.00
2022-10-17T15:36:34.636Z,4.20
2022-10-17T15:39:06.425Z,5.10
2022-10-17T15:41:38.000Z,4.60
2022-10-17T15:44:09.865Z,5.50
2022-10-17T15:46:41.378Z,5.10
2022-10-17T15:49:14.663Z,4.50
2022-10-17T15:51:47.203Z,4.70
2022-10-17T15:54:21.161Z,6.50
2022-10-17T15:56:54.406Z,6.40
2022-10-17T15:59:28.787Z,9.40
2022-10-17T16:02:00.354Z,11.80
2022-10-17T16:07:02.484Z,11.80
2022-10-17T16:09:34.300Z,12.20
2022-10-17T16:12:06.548Z,11.30
2022-10-17T16:14:38.002Z,10.80
2022-10-17T16:17:10.525Z,9.40
2022-10-17T16:19:41.934Z,10.30
2022-10-17T16:22:20.696Z,8.90
2022-10-17T16:24:58.499Z,8.80
2022-10-17T16:27:30.249Z,8.50
2022-10-17T16:32:32.213Z,6.90
2022-10-17T16:35:04.401Z,8.20
2022-10-17T16:37:36.436Z,10.20
2022-10-17T16:40:10.115Z,9.00
2022-10-17T16:42:41.743Z,9.20
2022-10-17T16:45:16.524Z,8.60
2022-10-17T16:47:48.410Z,10.40
2022-10-17T16:50:20.246Z,13.00
2022-10-17T16:55:21.736Z,13.20
2022-10-17T16:57:53.722Z,13.80
2022-10-17T17:00:25.252Z,14.70
2022-10-17T17:02:56.991Z,13.40
2022-10-17T17:05:28.647Z,11.00
2022-10-17T17:10:31.549Z,11.50
2022-10-17T17:13:04.617Z,12.40
2022-10-17T17:15:39.187Z,11.40
2022-10-17T17:18:12.464Z,13.90
2022-10-17T17:20:44.798Z,14.50
2022-10-17T17:23:17.049Z,13.20
2022-10-17T17:25:48.545Z,11.40
2022-10-17T17:28:20.353Z,11.50
2022-10-17T17:30:52.293Z,11.60
2022-10-17T17:33:23.843Z,11.60
2022-10-17T17:35:59.082Z,10.90
2022-10-17T17:38:31.215Z,11.70
2022-10-17T17:41:02.679Z,11.70
2022-10-17T17:43:34.389Z,12.70
2022-10-17T17:46:06.004Z,11.90
2022-10-17T17:48:39.458Z,17.70
2022-10-17T17:51:12.314Z,18.50
2022-10-17T17:53:43.695Z,21.30
2022-10-17T17:58:48.472Z,25.90
2022-10-17T18:01:24.010Z,24.00
2022-10-17T18:03:56.675Z,25.30
2022-10-17T18:06:28.321Z,20.70
2022-10-17T18:09:01.801Z,23.00
2022-10-17T18:11:33.269Z,27.70
2022-10-17T18:14:06.715Z,35.50
2022-10-17T18:16:38.737Z,33.00
2022-10-17T18:19:12.024Z,33.70
2022-10-17T18:21:44.470Z,34.20
2022-10-17T18:24:15.959Z,33.60
2022-10-17T18:26:47.675Z,35.70
2022-10-17T18:29:19.704Z,36.80
2022-10-17T18:31:51.241Z,35.00
2022-10-17T18:34:28.138Z,37.60
2022-10-17T18:37:00.336Z,36.10
2022-10-17T18:39:31.936Z,37.60
2022-10-17T18:44:33.281Z,34.10
2022-10-17T18:47:04.776Z,34.80
2022-10-17T18:49:36.935Z,35.70
2022-10-17T18:52:08.689Z,36.10
2022-10-17T18:57:09.947Z,37.70
2022-10-17T19:02:13.856Z,34.80
2022-10-17T19:04:45.451Z,36.50
2022-10-17T19:07:20.357Z,26.60
2022-10-17T19:09:52.649Z,24.70
2022-10-17T19:12:24.434Z,28.00
2022-10-17T19:14:56.755Z,35.00
2022-10-17T19:17:28.616Z,30.10
2022-10-17T19:20:01.062Z,32.20
2022-10-17T19:22:33.589Z,34.90
2022-10-17T19:25:06.098Z,31.80
2022-10-17T19:27:37.888Z,30.70
2022-10-17T19:30:12.852Z,29.40
2022-10-17T19:32:44.229Z,29.00
2022-10-17T19:35:15.606Z,30.30
2022-10-17T19:37:46.917Z,28.30
2022-10-17T19:40:18.614Z,28.20
2022-10-17T19:42:50.204Z,29.00
2022-10-17T19:45:21.803Z,28.80
2022-10-17T19:47:53.448Z,30.50
2022-10-17T19:50:25.829Z,29.70
2022-10-17T19:52:57.350Z,29.70
2022-10-17T19:55:28.777Z,30.60
2022-10-17T19:58:02.939Z,31.40
2022-10-17T20:00:34.343Z,30.10
2022-10-17T20:03:06.530Z,30.10
2022-10-17T20:05:40.546Z,31.00
2022-10-17T20:08:12.085Z,31.50
2022-10-17T20:10:43.604Z,28.00
2022-10-17T20:13:15.324Z,32.10
2022-10-17T20:18:16.964Z,33.10
2022-10-17T20:23:18.275Z,28.10
2022-10-17T20:26:01.066Z,27.30
2022-10-17T20:28:41.274Z,30.90
2022-10-17T20:31:12.770Z,29.90
2022-10-17T20:33:44.875Z,29.00
2022-10-17T20:36:16.791Z,30.30
2022-10-17T20:38:48.480Z,30.60
2022-10-17T20:41:19.984Z,25.60
2022-10-17T20:43:53.182Z,26.40
2022-10-17T20:49:18.795Z,30.10
2022-10-17T20:51:50.236Z,29.00
2022-10-17T20:54:22.691Z,27.60
2022-10-17T20:56:54.156Z,29.50
2022-10-17T20:59:26.076Z,26.50
2022-10-17T21:01:57.542Z,25.60
2022-10-17T21:07:22.620Z,25.20
2022-10-17T21:09:54.288Z,24.40
2022-10-17T21:12:31.466Z,23.20
2022-10-17T21:15:14.925Z,22.60
2022-10-17T21:17:46.382Z,23.40
2022-10-17T21:20:18.036Z,25.30
2022-10-17T21:22:49.568Z,22.40
2022-10-17T21:27:51.684Z,26.90
2022-10-17T21:30:23.172Z,28.10
2022-10-17T21:32:57.569Z,26.20
2022-10-17T21:35:29.369Z,25.30
2022-10-17T21:38:00.855Z,24.10
2022-10-17T21:40:32.779Z,22.60
2022-10-17T21:43:04.331Z,21.70
2022-10-17T21:45:38.700Z,20.10
2022-10-17T21:48:12.924Z,23.50
2022-10-17T21:50:44.825Z,21.80
2022-10-17T21:53:16.268Z,25.60
2022-10-17T21:55:47.818Z,29.70
2022-10-17T21:58:19.328Z,29.40
2022-10-17T22:00:51.232Z,28.40
2022-10-17T22:03:22.912Z,28.10
2022-10-17T22:06:06.851Z,27.40
2022-10-17T22:08:45.907Z,28.50
2022-10-17T22:11:18.675Z,30.30
2022-10-17T22:13:50.221Z,33.90
2022-10-17T22:16:22.021Z,33.70
2022-10-17T22:18:53.827Z,33.50
2022-10-17T22:21:25.487Z,30.50
2022-10-17T22:24:00.657Z,29.10
2022-10-17T22:26:33.750Z,29.40
2022-10-17T22:29:05.944Z,28.10
2022-10-17T22:31:37.503Z,27.40
2022-10-17T22:34:08.897Z,30.60
2022-10-17T22:36:40.566Z,27.60
2022-10-17T22:39:12.100Z,25.60
2022-10-17T22:41:43.831Z,27.30
2022-10-17T22:46:45.544Z,23.00
2022-10-17T22:49:17.164Z,23.80
2022-10-17T22:51:48.830Z,29.30
2022-10-17T22:54:20.829Z,24.40
2022-10-17T22:59:24.028Z,23.00
2022-10-17T23:01:58.227Z,23.70
2022-10-17T23:04:29.752Z,22.50
2022-10-17T23:07:01.416Z,22.30
2022-10-17T23:09:33.115Z,23.80
2022-10-17T23:12:04.833Z,20.90
2022-10-17T23:17:09.618Z,22.40
2022-10-17T23:19:41.168Z,20.70
2022-10-17T23:24:43.151Z,22.10
2022-10-17T23:27:14.917Z,33.90
2022-10-17T23:32:16.359Z,34.70
2022-10-17T23:34:48.087Z,34.20
2022-10-17T23:37:19.816Z,28.60
2022-10-17T23:42:21.335Z,39.10
2022-10-17T23:44:52.757Z,29.20
2022-10-17T23:47:24.246Z,31.70
2022-10-17T23:49:55.862Z,32.40
2022-10-17T23:52:27.431Z,28.30
2022-10-17T23:54:58.984Z,32.60
2022-10-17T23:57:30.723Z,33.20
